Time;durP1;ratioP1;P1;durP2;ratioP2;P2;SDS_P1;SDS_P2;PMS_P1;PMS_P2;Temp;Humidity;BMP_temperature;BMP_pressure;BME280_temperature;BME280_humidity;BME280_pressure;Samples;Min_cycle;Max_cycle;Signal;HPM_P1;HPM_P2
2023/11/19 00:00:12;;;;;;;0.60;0.60;;;;;10.50;98364.00;;;;4935498;29;20144;-63
2023/11/19 00:02:41;;;;;;;1.95;0.60;;;;;10.40;98351.00;;;;4934064;29;20119;-63
2023/11/19 00:05:11;;;;;;;1.13;1.00;;;;;10.50;98355.00;;;;4934532;29;20043;-63
2023/11/19 00:07:41;;;;;;;0.30;0.30;;;;;10.40;98356.00;;;;4934000;29;20051;-64
2023/11/19 00:10:14;;;;;;;0.40;0.40;;;;;10.40;98360.00;;;;4934723;29;20050;-62
2023/11/19 00:12:44;;;;;;;0.50;0.50;;;;;10.50;98351.00;;;;4934969;29;20062;-64
2023/11/19 00:15:13;;;;;;;0.47;0.47;;;;;10.50;98347.00;;;;4933148;29;20058;-62
2023/11/19 00:17:44;;;;;;;1.55;0.40;;;;;10.50;98349.00;;;;4933834;29;20067;-62
2023/11/19 00:20:16;;;;;;;0.45;0.43;;;;;10.50;98343.00;;;;4934947;29;20043;-63
2023/11/19 00:22:42;;;;;;;1.75;0.50;;;;;10.60;98346.00;;;;4934851;29;20130;-64
2023/11/19 00:25:12;;;;;;;0.50;0.50;;;;;10.60;98334.00;;;;4934306;29;20036;-62
2023/11/19 00:27:39;;;;;;;1.10;0.40;;;;;10.60;98331.00;;;;4934923;29;20489;-61
2023/11/19 00:30:06;;;;;;;0.40;0.40;;;;;10.60;98338.00;;;;4933530;29;20051;-64
2023/11/19 00:32:33;;;;;;;0.45;0.45;;;;;10.60;98335.00;;;;4934870;29;20075;-62
2023/11/19 00:35:00;;;;;;;0.32;0.30;;;;;10.60;98340.00;;;;4932820;29;20479;-64
2023/11/19 00:37:26;;;;;;;0.30;0.30;;;;;10.60;98335.00;;;;4933518;29;20472;-65
2023/11/19 00:39:53;;;;;;;0.52;0.50;;;;;10.60;98341.00;;;;4934973;29;20405;-64
2023/11/19 00:42:20;;;;;;;0.35;0.35;;;;;10.60;98339.00;;;;4933563;29;20410;-65
2023/11/19 00:44:47;;;;;;;0.77;0.50;;;;;10.60;98342.00;;;;4933950;29;20561;-64
2023/11/19 00:47:17;;;;;;;0.43;0.40;;;;;10.60;98327.00;;;;4934700;29;20419;-64
2023/11/19 00:49:44;;;;;;;1.55;0.40;;;;;10.60;98330.00;;;;4934622;29;20165;-63
2023/11/19 00:52:10;;;;;;;0.50;0.50;;;;;10.70;98322.00;;;;4917600;29;20048;-65
2023/11/19 00:54:37;;;;;;;0.40;0.40;;;;;10.70;98322.00;;;;4933995;29;20047;-64
2023/11/19 00:57:04;;;;;;;1.08;0.47;;;;;10.70;98314.00;;;;4934590;29;20409;-65
2023/11/19 00:59:30;;;;;;;0.45;0.30;;;;;10.80;98314.00;;;;4917557;29;20134;-64
2023/11/19 01:01:57;;;;;;;0.30;0.30;;;;;10.80;98322.00;;;;4933304;29;20051;-64
2023/11/19 01:04:24;;;;;;;0.77;0.50;;;;;10.80;98321.00;;;;4932426;29;20083;-62
2023/11/19 01:06:50;;;;;;;0.28;0.28;;;;;10.70;98343.00;;;;4932972;29;20114;-61
2023/11/19 01:09:17;;;;;;;0.60;0.60;;;;;10.80;98342.00;;;;4933197;29;20078;-64
2023/11/19 01:11:44;;;;;;;0.50;0.50;;;;;10.80;98314.00;;;;4917514;29;20079;-64
2023/11/19 01:14:11;;;;;;;0.40;0.40;;;;;10.80;98335.00;;;;4933729;29;20051;-63
2023/11/19 01:16:37;;;;;;;1.40;0.40;;;;;10.70;98339.00;;;;4934309;29;20130;-64
2023/11/19 01:19:04;;;;;;;0.30;0.30;;;;;10.70;98338.00;;;;4933193;29;20056;-64
2023/11/19 01:21:43;;;;;;;0.40;0.40;;;;;10.70;98333.00;;;;4933501;29;20047;-66
2023/11/19 01:24:12;;;;;;;0.30;0.30;;;;;10.80;98337.00;;;;4919540;29;20251;-65
2023/11/19 01:26:44;;;;;;;0.50;0.50;;;;;10.80;98339.00;;;;4936780;29;20054;-64
2023/11/19 01:29:15;;;;;;;1.27;0.30;;;;;10.90;98320.00;;;;4938037;29;20052;-65
2023/11/19 01:31:43;;;;;;;0.43;0.40;;;;;10.90;98323.00;;;;4937882;29;20044;-63
2023/11/19 01:34:11;;;;;;;1.65;0.40;;;;;10.90;98319.00;;;;4937179;29;20428;-62
2023/11/19 01:36:39;;;;;;;0.50;0.50;;;;;11.00;98305.00;;;;4937758;29;20075;-62
2023/11/19 01:39:06;;;;;;;0.30;0.30;;;;;11.00;98298.00;;;;4937704;29;20410;-61
2023/11/19 01:41:36;;;;;;;0.57;0.40;;;;;11.00;98297.00;;;;4936216;29;20054;-62
2023/11/19 01:44:03;;;;;;;0.30;0.30;;;;;11.00;98295.00;;;;4935661;29;20067;-62
2023/11/19 01:46:32;;;;;;;0.30;0.30;;;;;11.10;98306.00;;;;4936448;29;20051;-61
2023/11/19 01:49:00;;;;;;;0.30;0.30;;;;;11.10;98295.00;;;;4937770;29;20082;-62
2023/11/19 01:51:27;;;;;;;0.50;0.40;;;;;11.10;98294.00;;;;4936220;29;20080;-63
2023/11/19 01:53:56;;;;;;;0.40;0.40;;;;;11.10;98304.00;;;;4935544;29;20526;-64
2023/11/19 01:56:24;;;;;;;0.35;0.35;;;;;11.10;98297.00;;;;4936092;29;20062;-61
2023/11/19 01:58:52;;;;;;;0.50;0.50;;;;;11.10;98292.00;;;;4935996;29;20055;-62
2023/11/19 02:01:19;;;;;;;0.40;0.40;;;;;11.10;98272.00;;;;4920278;29;20101;-63
2023/11/19 02:03:47;;;;;;;0.43;0.40;;;;;11.10;98278.00;;;;4935530;29;20051;-63
2023/11/19 02:06:15;;;;;;;0.50;0.50;;;;;11.10;98258.00;;;;4920238;29;20509;-62
2023/11/19 02:08:43;;;;;;;0.88;0.40;;;;;11.10;98270.00;;;;4937255;29;20449;-61
2023/11/19 02:11:11;;;;;;;0.40;0.40;;;;;11.10;98263.00;;;;4920243;29;20131;-63
2023/11/19 02:13:41;;;;;;;1.65;0.30;;;;;11.10;98265.00;;;;4935121;29;20078;-62
2023/11/19 02:16:10;;;;;;;0.50;0.50;;;;;11.10;98262.00;;;;4935809;29;20054;-63
2023/11/19 02:18:38;;;;;;;0.40;0.40;;;;;11.10;98263.00;;;;4937049;29;20043;-63
2023/11/19 02:21:05;;;;;;;0.40;0.40;;;;;11.10;98266.00;;;;4935484;29;20048;-62
2023/11/19 02:23:32;;;;;;;0.40;0.40;;;;;11.10;98264.00;;;;4935052;29;20420;-62
2023/11/19 02:26:32;;;;;;;0.40;0.40;;;;;11.20;98254.00;;;;4936954;29;20036;-63
2023/11/19 02:28:59;;;;;;;0.40;0.40;;;;;11.20;98255.00;;;;4936769;29;20493;-65
2023/11/19 02:31:27;;;;;;;1.60;0.60;;;;;11.20;98250.00;;;;4935631;29;20127;-64
2023/11/19 02:33:54;;;;;;;0.88;0.60;;;;;11.20;98250.00;;;;4935730;29;20052;-64
2023/11/19 02:36:21;;;;;;;0.63;0.60;;;;;11.20;98242.00;;;;4936656;29;20047;-64
2023/11/19 02:38:48;;;;;;;1.38;0.52;;;;;11.20;98246.00;;;;4935538;29;20413;-64
2023/11/19 02:41:14;;;;;;;0.88;0.43;;;;;11.20;98244.00;;;;4935167;29;20501;-62
2023/11/19 02:43:41;;;;;;;0.60;0.60;;;;;11.30;98239.00;;;;4934785;29;20481;-63
2023/11/19 02:46:08;;;;;;;0.63;0.60;;;;;11.30;98233.00;;;;4935065;29;20075;-64
2023/11/19 02:48:38;;;;;;;0.60;0.60;;;;;11.20;98224.00;;;;4936134;29;20493;-64
2023/11/19 02:51:09;;;;;;;1.00;0.68;;;;;11.20;98219.00;;;;4935617;29;20555;-63
2023/11/19 02:53:40;;;;;;;0.95;0.60;;;;;11.20;98220.00;;;;4935911;29;20051;-64
2023/11/19 02:56:25;;;;;;;0.57;0.57;;;;;11.30;98217.00;;;;4934947;29;20531;-63
2023/11/19 02:58:53;;;;;;;1.67;0.60;;;;;11.30;98227.00;;;;4935304;29;20545;-63
2023/11/19 03:01:29;;;;;;;0.60;0.60;;;;;11.30;98223.00;;;;4935409;29;20040;-63
2023/11/19 03:03:58;;;;;;;0.50;0.50;;;;;11.40;98226.00;;;;4934687;29;20047;-63
2023/11/19 03:06:25;;;;;;;0.40;0.40;;;;;11.40;98227.00;;;;4919418;29;20059;-63
2023/11/19 03:08:52;;;;;;;0.50;0.50;;;;;11.40;98233.00;;;;4935788;29;20461;-63
2023/11/19 03:11:18;;;;;;;1.85;0.50;;;;;11.40;98234.00;;;;4936114;29;20044;-63
2023/11/19 03:13:46;;;;;;;0.55;0.55;;;;;11.40;98213.00;;;;4935328;29;20058;-63
2023/11/19 03:16:13;;;;;;;0.43;0.43;;;;;11.40;98215.00;;;;4935600;29;20409;-64
2023/11/19 03:18:40;;;;;;;0.40;0.40;;;;;11.40;98219.00;;;;4934842;29;20501;-63
2023/11/19 03:21:08;;;;;;;0.35;0.35;;;;;11.50;98210.00;;;;4935797;29;20098;-64
2023/11/19 03:23:35;;;;;;;0.57;0.57;;;;;11.50;98204.00;;;;4934027;29;20123;-66
2023/11/19 03:26:05;;;;;;;0.47;0.47;;;;;11.50;98212.00;;;;4935738;29;20123;-66
2023/11/19 03:28:32;;;;;;;0.50;0.50;;;;;11.60;98203.00;;;;4935847;29;20051;-66
2023/11/19 03:30:59;;;;;;;0.52;0.52;;;;;11.60;98208.00;;;;4934514;29;20520;-64
2023/11/19 03:33:27;;;;;;;0.73;0.50;;;;;11.60;98202.00;;;;4935090;29;20048;-65
2023/11/19 03:35:56;;;;;;;0.85;0.75;;;;;11.60;98205.00;;;;4935608;29;20043;-65
2023/11/19 03:38:24;;;;;;;0.70;0.65;;;;;11.60;98202.00;;;;4935641;29;20047;-64
2023/11/19 03:40:51;;;;;;;1.27;0.80;;;;;11.60;98184.00;;;;4935567;29;20066;-65
2023/11/19 03:43:19;;;;;;;2.17;1.00;;;;;11.60;98185.00;;;;4935505;29;20469;-66
2023/11/19 03:45:46;;;;;;;1.90;0.93;;;;;11.60;98185.00;;;;4933387;29;20130;-65
2023/11/19 03:48:15;;;;;;;1.25;0.80;;;;;11.60;98181.00;;;;4934167;29;20056;-66
2023/11/19 03:50:43;;;;;;;1.42;1.30;;;;;11.60;98195.00;;;;4935331;29;20062;-65
2023/11/19 03:53:11;;;;;;;1.25;1.10;;;;;11.60;98205.00;;;;4935352;29;20048;-65
2023/11/19 03:55:38;;;;;;;1.63;1.40;;;;;11.60;98194.00;;;;4933666;29;20140;-65
2023/11/19 03:58:05;;;;;;;1.52;1.42;;;;;11.60;98197.00;;;;4934068;29;20063;-65
2023/11/19 04:00:32;;;;;;;1.80;1.60;;;;;11.60;98199.00;;;;4934040;29;20089;-65
2023/11/19 04:02:59;;;;;;;1.85;1.75;;;;;11.70;98204.00;;;;4918321;29;20056;-65
2023/11/19 04:05:25;;;;;;;2.20;2.03;;;;;11.70;98191.00;;;;4933737;29;20054;-65
2023/11/19 04:07:52;;;;;;;2.20;2.00;;;;;11.70;98194.00;;;;4934279;29;20086;-65
2023/11/19 04:10:20;;;;;;;2.15;1.95;;;;;11.70;98200.00;;;;4934468;29;20122;-65
2023/11/19 04:12:47;;;;;;;3.38;2.15;;;;;11.70;98189.00;;;;4935502;29;20035;-65
2023/11/19 04:15:14;;;;;;;2.33;2.13;;;;;11.70;98196.00;;;;4934217;29;20044;-65
2023/11/19 04:17:41;;;;;;;2.42;2.22;;;;;11.70;98167.00;;;;4936031;29;20054;-65
2023/11/19 04:20:11;;;;;;;2.70;2.50;;;;;11.70;98199.00;;;;4935890;29;20066;-65
2023/11/19 04:22:38;;;;;;;2.60;2.20;;;;;11.70;98197.00;;;;4934892;29;20039;-64
2023/11/19 04:25:05;;;;;;;3.28;2.70;;;;;11.80;98189.00;;;;4935222;29;20051;-62
2023/11/19 04:27:32;;;;;;;2.35;2.13;;;;;11.80;98198.00;;;;4936003;29;20103;-63
2023/11/19 04:30:01;;;;;;;3.00;2.70;;;;;11.80;98196.00;;;;4935796;29;20098;-63
2023/11/19 04:32:28;;;;;;;4.00;2.72;;;;;11.80;98188.00;;;;4935112;29;20086;-64
2023/11/19 04:34:55;;;;;;;2.95;2.35;;;;;11.90;98188.00;;;;4934115;29;20079;-64
2023/11/19 04:37:22;;;;;;;3.40;2.30;;;;;11.90;98202.00;;;;4934891;29;20475;-64
2023/11/19 04:39:49;;;;;;;2.72;2.53;;;;;11.90;98183.00;;;;4933503;29;20047;-63
2023/11/19 04:42:16;;;;;;;3.30;2.25;;;;;11.90;98188.00;;;;4934666;29;20052;-63
2023/11/19 04:44:44;;;;;;;3.30;2.55;;;;;11.90;98176.00;;;;4933952;29;20047;-64
2023/11/19 04:47:10;;;;;;;2.60;2.40;;;;;12.00;98187.00;;;;4934552;29;20078;-63
2023/11/19 04:49:42;;;;;;;2.30;2.10;;;;;11.90;98182.00;;;;4934996;29;20409;-63
2023/11/19 04:52:09;;;;;;;2.33;2.13;;;;;12.00;98181.00;;;;4934874;29;20107;-63
2023/11/19 04:54:40;;;;;;;2.40;2.20;;;;;12.00;98186.00;;;;4933998;29;20063;-63
2023/11/19 04:57:09;;;;;;;2.97;2.38;;;;;12.00;98195.00;;;;4935913;29;20048;-62
2023/11/19 04:59:36;;;;;;;2.13;1.92;;;;;12.00;98190.00;;;;4938312;29;20047;-64
2023/11/19 05:02:03;;;;;;;2.30;1.70;;;;;12.00;98185.00;;;;4938348;29;20082;-64
2023/11/19 05:04:31;;;;;;;1.80;1.70;;;;;12.10;98192.00;;;;4936505;29;20095;-64
2023/11/19 05:06:57;;;;;;;2.63;1.80;;;;;12.10;98190.00;;;;4937016;29;20052;-63
2023/11/19 05:09:24;;;;;;;1.88;1.67;;;;;12.10;98192.00;;;;4938387;29;20048;-64
2023/11/19 05:11:51;;;;;;;2.15;1.95;;;;;12.10;98191.00;;;;4938223;29;20047;-64
2023/11/19 05:14:21;;;;;;;2.67;1.95;;;;;12.10;98182.00;;;;4936231;29;20055;-63
2023/11/19 05:16:48;;;;;;;2.25;1.88;;;;;12.10;98181.00;;;;4937230;29;20047;-63
2023/11/19 05:19:15;;;;;;;2.42;2.13;;;;;12.20;98181.00;;;;4938516;29;20412;-64
2023/11/19 05:21:44;;;;;;;2.40;2.17;;;;;12.10;98183.00;;;;4939346;29;20044;-64
2023/11/19 05:24:14;;;;;;;2.72;2.20;;;;;12.20;98192.00;;;;4938405;29;20167;-64
2023/11/19 05:26:41;;;;;;;2.85;2.00;;;;;12.20;98193.00;;;;4936964;29;20079;-64
2023/11/19 05:29:07;;;;;;;3.58;2.30;;;;;12.30;98182.00;;;;4938102;29;20408;-64
2023/11/19 05:31:34;;;;;;;2.72;2.22;;;;;12.30;98183.00;;;;4938185;29;20175;-63
2023/11/19 05:34:03;;;;;;;3.88;2.38;;;;;12.30;98181.00;;;;4937174;29;20055;-64
2023/11/19 05:36:30;;;;;;;3.40;2.20;;;;;12.40;98175.00;;;;4937780;29;20657;-64
2023/11/19 05:38:57;;;;;;;2.88;2.58;;;;;12.40;98176.00;;;;4937770;29;20051;-63
2023/11/19 05:41:24;;;;;;;2.78;1.85;;;;;12.40;98175.00;;;;4920669;29;20048;-64
2023/11/19 05:43:51;;;;;;;2.65;2.10;;;;;12.40;98177.00;;;;4935878;29;20102;-64
2023/11/19 05:46:18;;;;;;;2.33;1.70;;;;;12.50;98170.00;;;;4936741;29;20049;-64
2023/11/19 05:48:47;;;;;;;2.10;1.90;;;;;12.50;98171.00;;;;4937589;29;20520;-64
2023/11/19 05:51:15;;;;;;;3.97;2.10;;;;;12.50;98175.00;;;;4937448;29;20055;-64
2023/11/19 05:53:42;;;;;;;2.15;1.40;;;;;12.50;98166.00;;;;4935610;29;20055;-66
2023/11/19 05:56:09;;;;;;;1.77;1.67;;;;;12.60;98183.00;;;;4920425;29;20048;-64
2023/11/19 05:58:37;;;;;;;3.33;1.70;;;;;12.60;98185.00;;;;4937470;29;20083;-64
2023/11/19 06:01:04;;;;;;;2.42;1.77;;;;;12.60;98189.00;;;;4936042;29;20501;-64
2023/11/19 06:03:31;;;;;;;2.20;1.50;;;;;12.60;98199.00;;;;4936821;29;20051;-64
2023/11/19 06:05:58;;;;;;;2.65;2.15;;;;;12.60;98204.00;;;;4935997;29;20040;-64
2023/11/19 06:08:26;;;;;;;2.75;1.50;;;;;12.70;98192.00;;;;4935323;29;20058;-64
2023/11/19 06:10:53;;;;;;;1.50;1.17;;;;;12.70;98204.00;;;;4936039;29;20142;-64
2023/11/19 06:13:21;;;;;;;1.33;1.23;;;;;12.80;98209.00;;;;4935708;29;20083;-62
2023/11/19 06:15:51;;;;;;;1.75;1.20;;;;;12.80;98196.00;;;;4937089;29;20102;-64
2023/11/19 06:18:19;;;;;;;1.73;1.63;;;;;12.80;98212.00;;;;4936009;29;20043;-63
2023/11/19 06:20:47;;;;;;;2.00;1.25;;;;;12.90;98211.00;;;;4936991;29;20051;-64
2023/11/19 06:23:13;;;;;;;4.63;1.42;;;;;12.90;98206.00;;;;4936934;29;20050;-64
2023/11/19 06:25:40;;;;;;;1.73;1.60;;;;;12.90;98202.00;;;;4936355;29;20119;-63
2023/11/19 06:28:07;;;;;;;2.72;1.58;;;;;13.00;98204.00;;;;4936973;29;20048;-64
2023/11/19 06:30:34;;;;;;;2.22;1.58;;;;;13.00;98203.00;;;;4935630;29;20076;-64
2023/11/19 06:33:00;;;;;;;3.65;1.58;;;;;13.00;98210.00;;;;4935892;29;20052;-64
2023/11/19 06:35:29;;;;;;;1.75;1.30;;;;;13.00;98215.00;;;;4935981;29;20049;-63
2023/11/19 06:37:56;;;;;;;4.15;1.75;;;;;13.00;98213.00;;;;4919685;29;20060;-64
2023/11/19 06:40:23;;;;;;;3.85;1.70;;;;;13.10;98222.00;;;;4919697;29;20047;-64
2023/11/19 06:42:52;;;;;;;1.75;1.45;;;;;13.10;98216.00;;;;4935481;29;20066;-64
2023/11/19 06:45:18;;;;;;;4.03;1.48;;;;;13.20;98231.00;;;;4934882;29;20420;-64
2023/11/19 06:47:45;;;;;;;4.07;1.38;;;;;13.20;98231.00;;;;4935352;29;20055;-64
2023/11/19 06:50:12;;;;;;;3.95;1.48;;;;;13.20;98227.00;;;;4935349;29;20072;-64
2023/11/19 06:52:39;;;;;;;8.88;1.55;;;;;13.20;98224.00;;;;4936502;29;20114;-63
2023/11/19 06:55:07;;;;;;;2.20;1.50;;;;;13.20;98222.00;;;;4935753;29;20050;-64
2023/11/19 06:57:34;;;;;;;4.45;1.70;;;;;13.20;98230.00;;;;4936586;29;20048;-64
2023/11/19 07:00:01;;;;;;;4.85;1.80;;;;;13.20;98231.00;;;;4936276;29;20138;-66
2023/11/19 07:02:28;;;;;;;2.20;1.20;;;;;13.20;98230.00;;;;4935040;29;20438;-64
2023/11/19 07:04:54;;;;;;;3.85;1.10;;;;;13.20;98229.00;;;;4918555;29;20048;-64
2023/11/19 07:07:21;;;;;;;1.63;1.40;;;;;13.30;98231.00;;;;4936235;29;20058;-64
2023/11/19 07:09:47;;;;;;;4.10;1.50;;;;;13.20;98233.00;;;;4934956;29;20047;-64
2023/11/19 07:12:15;;;;;;;3.60;1.30;;;;;13.20;98232.00;;;;4936145;29;20043;-65
2023/11/19 07:14:41;;;;;;;1.73;1.08;;;;;13.20;98238.00;;;;4918345;29;20044;-65
2023/11/19 07:17:10;;;;;;;0.73;0.73;;;;;13.20;98248.00;;;;4936118;29;20075;-64
2023/11/19 07:19:38;;;;;;;1.10;0.60;;;;;13.20;98238.00;;;;4935850;29;20106;-65
2023/11/19 07:22:06;;;;;;;1.48;0.63;;;;;13.20;98245.00;;;;4934547;29;20134;-65
2023/11/19 07:24:32;;;;;;;0.65;0.50;;;;;13.20;98251.00;;;;4935149;29;20051;-65
2023/11/19 07:26:59;;;;;;;0.65;0.65;;;;;13.10;98261.00;;;;4935878;29;20044;-65
2023/11/19 07:29:26;;;;;;;0.75;0.60;;;;;13.10;98255.00;;;;4935616;29;20044;-64
2023/11/19 07:31:56;;;;;;;0.60;0.60;;;;;13.10;98268.00;;;;4935692;29;20492;-63
2023/11/19 07:34:24;;;;;;;0.85;0.70;;;;;13.10;98279.00;;;;4935574;29;20083;-65
2023/11/19 07:36:51;;;;;;;0.90;0.90;;;;;13.10;98281.00;;;;4934411;29;20146;-64
2023/11/19 07:39:18;;;;;;;1.45;1.10;;;;;13.20;98273.00;;;;4936552;29;20044;-64
2023/11/19 07:41:45;;;;;;;1.45;1.00;;;;;13.30;98266.00;;;;4934504;29;20050;-64
2023/11/19 07:44:11;;;;;;;2.47;0.82;;;;;13.40;98262.00;;;;4933619;29;20050;-63
2023/11/19 07:46:38;;;;;;;3.17;1.10;;;;;13.40;98273.00;;;;4935455;29;20060;-62
2023/11/19 07:49:04;;;;;;;2.88;1.20;;;;;13.50;98273.00;;;;4934146;29;20106;-64
2023/11/19 07:51:31;;;;;;;2.17;1.33;;;;;13.60;98281.00;;;;4935295;29;20050;-64
2023/11/19 07:53:58;;;;;;;4.30;1.15;;;;;13.60;98272.00;;;;4934737;29;20505;-64
2023/11/19 07:56:25;;;;;;;3.97;1.40;;;;;13.70;98282.00;;;;4935261;29;20131;-64
2023/11/19 07:58:52;;;;;;;4.15;1.45;;;;;13.80;98273.00;;;;4935307;29;20497;-64
2023/11/19 08:01:19;;;;;;;2.50;1.35;;;;;13.80;98275.00;;;;4934062;29;20489;-64
2023/11/19 08:03:45;;;;;;;5.60;1.67;;;;;13.80;98280.00;;;;4934435;29;20138;-65
2023/11/19 08:06:15;;;;;;;4.32;1.70;;;;;13.90;98289.00;;;;4934720;29;20043;-64
2023/11/19 08:08:42;;;;;;;5.90;2.65;;;;;14.00;98288.00;;;;4935185;29;20099;-64
2023/11/19 08:11:09;;;;;;;3.67;1.58;;;;;14.00;98294.00;;;;4935066;29;20493;-63
2023/11/19 08:13:35;;;;;;;2.72;1.30;;;;;14.00;98287.00;;;;4934472;29;20071;-64
2023/11/19 08:16:02;;;;;;;4.88;1.80;;;;;14.00;98292.00;;;;4935003;29;20043;-63
2023/11/19 08:18:29;;;;;;;3.00;1.48;;;;;13.90;98291.00;;;;4935064;29;20055;-62
2023/11/19 08:20:58;;;;;;;3.97;1.40;;;;;13.90;98284.00;;;;4934900;29;20047;-64
2023/11/19 08:23:25;;;;;;;5.70;1.73;;;;;14.00;98295.00;;;;4934331;29;20036;-64
2023/11/19 08:25:52;;;;;;;3.45;1.45;;;;;14.00;98288.00;;;;4917809;29;20564;-64
2023/11/19 08:28:19;;;;;;;8.93;1.70;;;;;14.00;98303.00;;;;4933670;29;20051;-64
2023/11/19 08:30:46;;;;;;;6.15;1.95;;;;;14.00;98295.00;;;;4934857;29;20466;-64
2023/11/19 08:33:12;;;;;;;7.57;2.40;;;;;14.00;98290.00;;;;4934358;29;20040;-64
2023/11/19 08:35:39;;;;;;;4.80;1.77;;;;;14.00;98293.00;;;;4934217;29;20055;-64
2023/11/19 08:38:06;;;;;;;4.22;1.45;;;;;14.00;98292.00;;;;4934071;29;20463;-64
2023/11/19 08:40:33;;;;;;;2.20;1.50;;;;;14.10;98286.00;;;;4934793;29;20508;-64
2023/11/19 08:42:59;;;;;;;4.35;1.80;;;;;14.20;98291.00;;;;4934946;29;20043;-62
2023/11/19 08:45:26;;;;;;;6.63;1.80;;;;;14.30;98282.00;;;;4932763;29;20080;-64
2023/11/19 08:47:53;;;;;;;5.00;1.92;;;;;14.60;98281.00;;;;4934842;29;20047;-64
2023/11/19 08:50:20;;;;;;;3.85;1.95;;;;;14.70;98281.00;;;;4934737;29;20103;-64
2023/11/19 08:52:46;;;;;;;5.10;1.75;;;;;14.80;98290.00;;;;4933513;29;20098;-65
2023/11/19 08:55:13;;;;;;;5.70;1.70;;;;;14.80;98287.00;;;;4934402;29;20054;-65
2023/11/19 08:57:40;;;;;;;3.83;1.77;;;;;14.80;98281.00;;;;4934695;29;20055;-65
2023/11/19 09:00:07;;;;;;;3.08;1.63;;;;;14.80;98286.00;;;;4934612;29;20046;-64
2023/11/19 09:02:37;;;;;;;6.35;1.90;;;;;14.90;98289.00;;;;4934575;29;20501;-64
2023/11/19 09:05:07;;;;;;;2.70;1.80;;;;;14.80;98297.00;;;;4933926;29;20079;-62
2023/11/19 09:07:34;;;;;;;4.93;2.15;;;;;14.80;98282.00;;;;4934370;29;20047;-65
2023/11/19 09:10:00;;;;;;;6.30;1.80;;;;;14.80;98295.00;;;;4933445;29;20464;-65
2023/11/19 09:12:27;;;;;;;3.33;1.77;;;;;14.80;98288.00;;;;4934547;29;20103;-65
2023/11/19 09:14:54;;;;;;;4.57;1.80;;;;;14.70;98300.00;;;;4933807;29;20050;-65
2023/11/19 09:17:20;;;;;;;3.67;1.85;;;;;14.80;98295.00;;;;4934492;29;20079;-64
2023/11/19 09:19:47;;;;;;;2.38;1.65;;;;;14.90;98308.00;;;;4934480;29;20122;-63
2023/11/19 09:22:14;;;;;;;3.00;1.42;;;;;15.00;98290.00;;;;4934336;29;20039;-64
2023/11/19 09:24:41;;;;;;;2.13;1.30;;;;;14.90;98294.00;;;;4932547;29;20044;-64
2023/11/19 09:27:07;;;;;;;4.93;1.60;;;;;15.00;98296.00;;;;4934526;29;20111;-64
2023/11/19 09:29:34;;;;;;;4.65;1.40;;;;;15.10;98314.00;;;;4933284;29;20512;-64
2023/11/19 09:32:01;;;;;;;2.03;1.38;;;;;15.30;98309.00;;;;4934429;29;20050;-64
2023/11/19 09:34:31;;;;;;;4.10;1.63;;;;;15.30;98300.00;;;;4933690;29;20076;-64
2023/11/19 09:36:58;;;;;;;2.55;1.40;;;;;15.40;98320.00;;;;4934254;29;20047;-65
2023/11/19 09:39:25;;;;;;;4.97;1.42;;;;;15.50;98311.00;;;;4934341;29;20386;-66
2023/11/19 09:41:52;;;;;;;4.35;1.67;;;;;15.60;98320.00;;;;4933188;29;20082;-66
2023/11/19 09:44:19;;;;;;;6.32;2.42;;;;;15.60;98320.00;;;;4934872;29;20058;-66
2023/11/19 09:46:47;;;;;;;5.53;2.20;;;;;15.60;98315.00;;;;4937657;29;20044;-65
2023/11/19 09:49:15;;;;;;;4.55;1.85;;;;;15.70;98317.00;;;;4920690;29;20138;-66
2023/11/19 09:51:41;;;;;;;2.70;1.45;;;;;15.60;98309.00;;;;4937609;29;20139;-64
2023/11/19 09:54:09;;;;;;;4.88;2.15;;;;;15.70;98316.00;;;;4936839;29;20458;-65
2023/11/19 09:56:37;;;;;;;4.93;1.80;;;;;15.80;98308.00;;;;4937495;29;20422;-65
2023/11/19 09:59:04;;;;;;;2.80;1.48;;;;;15.70;98305.00;;;;4937477;29;20051;-63
2023/11/19 10:01:31;;;;;;;3.35;1.77;;;;;15.70;98313.00;;;;4936085;29;20077;-63
2023/11/19 10:03:59;;;;;;;7.05;1.65;;;;;15.70;98301.00;;;;4935357;29;20044;-63
2023/11/19 10:06:26;;;;;;;9.63;3.00;;;;;15.80;98312.00;;;;4937306;29;20051;-63
2023/11/19 10:08:53;;;;;;;5.80;1.75;;;;;15.80;98304.00;;;;4936226;29;20082;-64
2023/11/19 10:11:20;;;;;;;4.95;2.05;;;;;15.80;98295.00;;;;4937304;29;20060;-63
2023/11/19 10:13:50;;;;;;;3.83;1.52;;;;;16.00;98288.00;;;;4936481;29;20560;-64
2023/11/19 10:16:17;;;;;;;5.30;1.75;;;;;16.10;98287.00;;;;4936943;29;20083;-64
2023/11/19 10:18:50;;;;;;;5.43;1.90;;;;;16.00;98286.00;;;;4937174;29;20051;-64
2023/11/19 10:21:19;;;;;;;9.02;1.70;;;;;15.80;98287.00;;;;4937269;29;20122;-63
2023/11/19 10:23:50;;;;;;;6.93;1.70;;;;;15.70;98300.00;;;;4936475;29;20493;-64
2023/11/19 10:26:16;;;;;;;6.57;1.95;;;;;15.60;98292.00;;;;4936905;29;20078;-64
2023/11/19 10:28:45;;;;;;;2.97;1.40;;;;;15.60;98289.00;;;;4937023;29;20079;-63
2023/11/19 10:31:16;;;;;;;5.85;1.58;;;;;15.40;98292.00;;;;4936835;29;20568;-64
2023/11/19 10:33:44;;;;;;;4.18;1.38;;;;;15.30;98292.00;;;;4936224;29;20044;-63
2023/11/19 10:36:12;;;;;;;3.22;1.23;;;;;15.30;98289.00;;;;4936981;29;20043;-64
2023/11/19 10:38:40;;;;;;;6.22;1.50;;;;;15.30;98288.00;;;;4936739;29;20126;-64
2023/11/19 10:41:07;;;;;;;5.90;1.58;;;;;15.20;98297.00;;;;4936756;29;20123;-64
2023/11/19 10:43:46;;;;;;;4.85;2.00;;;;;15.20;98273.00;;;;4935996;29;20047;-64
2023/11/19 10:46:14;;;;;;;6.22;1.90;;;;;15.30;98296.00;;;;4935435;29;20577;-63
2023/11/19 10:48:41;;;;;;;5.68;1.90;;;;;15.20;98282.00;;;;4936737;29;20118;-64
2023/11/19 10:51:08;;;;;;;5.35;1.77;;;;;15.30;98272.00;;;;4936676;29;20054;-63
2023/11/19 10:53:38;;;;;;;2.40;1.67;;;;;15.50;98263.00;;;;4934727;29;20126;-64
2023/11/19 10:56:10;;;;;;;4.28;1.52;;;;;15.90;98274.00;;;;4936017;29;20051;-64
2023/11/19 10:58:41;;;;;;;6.53;1.30;;;;;16.20;98257.00;;;;4936478;29;20044;-64
2023/11/19 11:01:18;;;;;;;2.67;1.60;;;;;16.60;98267.00;;;;4936676;29;20063;-62
2023/11/19 11:03:49;;;;;;;1.95;1.13;;;;;16.70;98274.00;;;;4936145;29;20469;-64
2023/11/19 11:06:17;;;;;;;4.75;1.33;;;;;16.60;98282.00;;;;4937361;29;20143;-64
2023/11/19 11:08:46;;;;;;;6.28;1.42;;;;;16.60;98260.00;;;;4936461;29;20095;-63
2023/11/19 11:11:17;;;;;;;3.33;1.40;;;;;16.80;98251.00;;;;4935348;29;20061;-64
2023/11/19 11:13:45;;;;;;;3.67;1.40;;;;;16.90;98256.00;;;;4935611;29;20452;-63
2023/11/19 11:16:13;;;;;;;2.33;1.40;;;;;17.10;98262.00;;;;4935937;29;20504;-63
2023/11/19 11:18:39;;;;;;;4.72;1.38;;;;;17.00;98261.00;;;;4935930;29;20059;-64
2023/11/19 11:21:10;;;;;;;2.22;1.13;;;;;17.10;98274.00;;;;4935977;29;20054;-62
2023/11/19 11:23:56;;;;;;;4.97;1.45;;;;;16.70;98253.00;;;;4935338;29;20043;-62
2023/11/19 11:26:41;;;;;;;5.95;1.50;;;;;16.60;98251.00;;;;4935980;29;20123;-62
2023/11/19 11:29:31;;;;;;;4.03;1.20;;;;;16.50;98260.00;;;;4935721;29;20054;-64
2023/11/19 11:32:24;;;;;;;5.22;1.63;;;;;16.50;98253.00;;;;4935887;29;20051;-62
2023/11/19 11:35:18;;;;;;;2.97;1.20;;;;;16.60;98258.00;;;;4935061;29;20059;-64
2023/11/19 11:37:48;;;;;;;6.20;2.17;;;;;16.40;98253.00;;;;4935621;29;20048;-64
2023/11/19 11:40:15;;;;;;;9.00;1.92;;;;;16.30;98253.00;;;;4934368;29;20055;-62
2023/11/19 11:42:42;;;;;;;3.70;1.38;;;;;16.30;98236.00;;;;4934401;29;20128;-62
2023/11/19 11:45:14;;;;;;;3.40;1.60;;;;;16.30;98245.00;;;;4934853;29;20043;-63
2023/11/19 11:47:46;;;;;;;5.55;1.27;;;;;16.20;98251.00;;;;4935968;29;20052;-62
2023/11/19 11:50:18;;;;;;;4.97;1.13;;;;;16.10;98258.00;;;;4935961;29;20457;-64
2023/11/19 11:53:02;;;;;;;3.67;1.00;;;;;16.10;98255.00;;;;4935478;29;20594;-64
2023/11/19 11:55:33;;;;;;;4.43;1.38;;;;;16.00;98251.00;;;;4917941;29;20138;-62
2023/11/19 11:58:00;;;;;;;2.55;1.08;;;;;15.90;98258.00;;;;4934295;29;20496;-62
2023/11/19 12:00:32;;;;;;;4.18;1.20;;;;;16.00;98247.00;;;;4935376;29;20122;-62
2023/11/19 12:03:02;;;;;;;3.55;1.23;;;;;16.00;98270.00;;;;4935419;29;20071;-62
2023/11/19 12:05:29;;;;;;;2.60;1.20;;;;;15.90;98264.00;;;;4934600;29;20095;-63
2023/11/19 12:08:00;;;;;;;4.03;1.10;;;;;15.90;98264.00;;;;4934752;29;20536;-63
2023/11/19 12:10:31;;;;;;;5.30;1.60;;;;;15.90;98255.00;;;;4918426;29;20052;-63
2023/11/19 12:12:59;;;;;;;3.92;1.70;;;;;15.90;98257.00;;;;4933949;29;20378;-63
2023/11/19 12:15:27;;;;;;;3.80;1.40;;;;;16.00;98259.00;;;;4934365;29;20047;-63
2023/11/19 12:17:55;;;;;;;6.57;1.65;;;;;16.00;98259.00;;;;4935018;29;20111;-63
2023/11/19 12:20:23;;;;;;;5.60;1.77;;;;;16.00;98251.00;;;;4935137;29;20052;-64
2023/11/19 12:22:53;;;;;;;5.32;1.40;;;;;16.10;98251.00;;;;4934895;29;20405;-63